Skip Navigation Links Skip Navigation Links

Current Weather

Montgomery County Airpark, Gaithersburg, Md.

For information only: do not use for flight planning or navigation.
Latest weather
Observation time Wednesday, December 2, 2020 9:56 PM EST
Local time Wednesday, December 2, 2020 10:44 PM EST
Flight conditions Visual Meteorological Conditions
Winds
Wind direction West (280°)
Wind speed 7 mph
Visibility 10 mi.
Sky condition
Ceiling unlimited
Sky clear
Temperature 34°F
Dewpoint 19°F
Altimeter 30.22 in.Hg
Pressure change last 3 hours-0.02 in.Hg
Pressure rising more slowly
Derived measurements
Relative humidity 54%
Wind chill 28°F
Density altitude -1441 ft.
Sea-level pressure 30.28 in.Hg
Remarks
Fully automated report.
Automated weather observing station with precipitation discriminator.
Freezing rain sensor not operating.
METAR KGAI 030256Z AUTO 28006KT 10SM CLR 01/M07 A3022 RMK AO2 SLP254 T00111072 51006 FZRANO

Settings

Location code

InnerDrive.Weather 4.0.6770.0 Release CLR 4.0.30319.42000
Copyright ©2018 Inner Drive Technology. All rights reserved. Portions Copyright ©1986-2018 David Braverman.

Find weather

Site navigation


Skip Navigation Links

Place info

Page info

PayPal - The safer, easier way to pay online!

Return home.

Copyright ©2020 Inner Drive Technology. Purveyors of fine, hand-crafted computer software. Page printed 2020-12-03T03:44:55 UTC.